createdAt,value
2018-03-06T00:00:52.037Z,9.60
2018-03-06T00:01:54.567Z,9.60
2018-03-06T00:02:57.194Z,9.60
2018-03-06T00:03:59.748Z,9.60
2018-03-06T00:05:02.262Z,9.60
2018-03-06T00:06:04.795Z,9.60
2018-03-06T00:07:07.345Z,9.60
2018-03-06T00:08:09.878Z,9.60
2018-03-06T00:09:13.176Z,9.50
2018-03-06T00:10:16.454Z,9.50
2018-03-06T00:11:19.730Z,9.50
2018-03-06T00:12:23.022Z,9.50
2018-03-06T00:13:26.298Z,9.50
2018-03-06T00:14:29.565Z,9.50
2018-03-06T00:15:32.077Z,9.50
2018-03-06T00:16:34.595Z,9.50
2018-03-06T00:17:37.126Z,9.50
2018-03-06T00:18:39.641Z,9.50
2018-03-06T00:19:42.973Z,9.50
2018-03-06T00:20:45.493Z,9.50
2018-03-06T00:21:48.782Z,9.50
2018-03-06T00:22:52.082Z,9.50
2018-03-06T00:23:54.663Z,9.50
2018-03-06T00:24:57.190Z,9.50
2018-03-06T00:26:00.478Z,9.60
2018-03-06T00:27:03.747Z,9.60
2018-03-06T00:28:06.350Z,9.50
2018-03-06T00:29:08.864Z,9.50
2018-03-06T00:30:11.373Z,9.50
2018-03-06T00:31:13.890Z,9.50
2018-03-06T00:32:16.397Z,9.50
2018-03-06T00:33:19.694Z,9.40
2018-03-06T00:34:22.222Z,9.40
2018-03-06T00:35:24.732Z,9.40
2018-03-06T00:36:27.249Z,9.40
2018-03-06T00:37:29.754Z,9.40
2018-03-06T00:38:32.289Z,9.30
2018-03-06T00:39:35.567Z,9.30
2018-03-06T00:40:38.101Z,9.30
2018-03-06T00:41:40.621Z,9.30
2018-03-06T00:42:43.914Z,9.30
2018-03-06T00:43:46.438Z,9.30
2018-03-06T00:44:49.599Z,9.30
2018-03-06T00:45:52.131Z,9.30
2018-03-06T00:46:54.656Z,9.30
2018-03-06T00:47:57.182Z,9.30
2018-03-06T00:48:59.720Z,9.30
2018-03-06T00:50:02.999Z,9.30
2018-03-06T00:51:05.544Z,9.30
2018-03-06T00:52:08.899Z,9.30
2018-03-06T00:53:11.434Z,9.30
2018-03-06T00:54:13.958Z,9.30
2018-03-06T00:55:17.251Z,9.30
2018-03-06T00:56:20.694Z,9.30
2018-03-06T00:57:23.218Z,9.20
2018-03-06T00:58:25.758Z,9.30
2018-03-06T00:59:28.293Z,9.30
2018-03-06T01:00:30.851Z,9.30
2018-03-06T01:01:33.391Z,9.30
2018-03-06T01:02:35.939Z,9.30
2018-03-06T01:03:39.251Z,9.20
2018-03-06T01:04:41.774Z,9.30
2018-03-06T01:05:44.295Z,9.30
2018-03-06T01:06:46.832Z,9.30
2018-03-06T01:07:49.361Z,9.20
2018-03-06T01:08:51.898Z,9.20
2018-03-06T01:09:54.410Z,9.20
2018-03-06T01:10:57.691Z,9.20
2018-03-06T01:12:00.980Z,9.20
2018-03-06T01:13:04.262Z,9.20
2018-03-06T01:14:07.570Z,9.20
2018-03-06T01:15:11.683Z,9.20
2018-03-06T01:16:14.246Z,9.20
2018-03-06T01:17:16.831Z,9.20
2018-03-06T01:18:19.338Z,9.30
2018-03-06T01:19:23.704Z,9.20
2018-03-06T01:20:26.221Z,9.20
2018-03-06T01:21:29.499Z,9.20
2018-03-06T01:22:32.019Z,9.20
2018-03-06T01:23:34.535Z,9.20
2018-03-06T01:24:37.859Z,9.20
2018-03-06T01:25:40.374Z,9.20
2018-03-06T01:26:42.907Z,9.20
2018-03-06T01:27:45.423Z,9.20
2018-03-06T01:28:48.699Z,9.20
2018-03-06T01:29:52.005Z,9.20
2018-03-06T01:30:54.582Z,9.20
2018-03-06T01:31:57.109Z,9.20
2018-03-06T01:32:59.624Z,9.20
2018-03-06T01:34:02.142Z,9.20
2018-03-06T01:35:04.703Z,9.20
2018-03-06T01:36:07.239Z,9.10
2018-03-06T01:37:09.759Z,9.10
2018-03-06T01:38:13.043Z,9.10
2018-03-06T01:39:16.362Z,9.10
2018-03-06T01:40:18.894Z,9.10
2018-03-06T01:41:21.422Z,9.10
2018-03-06T01:42:24.046Z,9.10
2018-03-06T01:43:26.565Z,9.10
2018-03-06T01:44:29.114Z,9.10
2018-03-06T01:45:31.667Z,9.10
2018-03-06T01:46:34.175Z,9.00
2018-03-06T01:47:37.467Z,9.00
2018-03-06T01:48:40.758Z,9.00
2018-03-06T01:49:43.274Z,9.00
2018-03-06T01:50:45.834Z,9.00
2018-03-06T01:51:58.285Z,9.00
2018-03-06T01:53:00.827Z,8.90
2018-03-06T01:54:04.366Z,8.90
2018-03-06T01:55:06.887Z,8.90
2018-03-06T01:56:09.437Z,8.90
2018-03-06T01:57:11.964Z,8.90
2018-03-06T01:58:14.487Z,8.90
2018-03-06T01:59:17.018Z,8.90
2018-03-06T02:00:19.546Z,8.90
2018-03-06T02:01:22.082Z,8.90
2018-03-06T02:02:24.706Z,8.90
2018-03-06T02:03:27.226Z,8.90
2018-03-06T02:04:30.510Z,8.90
2018-03-06T02:05:33.798Z,8.90
2018-03-06T02:06:37.106Z,8.90
2018-03-06T02:07:39.616Z,8.90
2018-03-06T02:08:42.127Z,8.90
2018-03-06T02:09:44.651Z,8.90
2018-03-06T02:10:47.273Z,8.90
2018-03-06T02:11:49.835Z,8.90
2018-03-06T02:12:52.404Z,8.90
2018-03-06T02:13:54.930Z,8.90
2018-03-06T02:14:57.534Z,8.90
2018-03-06T02:16:00.108Z,8.90
2018-03-06T02:17:02.666Z,8.90
2018-03-06T02:18:05.196Z,8.90
2018-03-06T02:19:07.731Z,9.00
2018-03-06T02:20:10.263Z,9.00
2018-03-06T02:21:12.786Z,9.00
2018-03-06T02:22:15.411Z,9.00
2018-03-06T02:23:17.934Z,9.00
2018-03-06T02:24:21.226Z,9.00
2018-03-06T02:25:24.520Z,9.00
2018-03-06T02:26:27.046Z,9.00
2018-03-06T02:27:29.591Z,9.00
2018-03-06T02:28:32.110Z,9.00
2018-03-06T02:29:34.630Z,9.00
2018-03-06T02:30:37.159Z,9.00
2018-03-06T02:31:39.692Z,9.00
2018-03-06T02:32:43.002Z,9.00
2018-03-06T02:33:45.522Z,9.00
2018-03-06T02:34:48.043Z,9.00
2018-03-06T02:35:50.567Z,9.00
2018-03-06T02:36:53.854Z,9.00
2018-03-06T02:37:57.171Z,9.00
2018-03-06T02:38:59.710Z,8.90
2018-03-06T02:40:03.003Z,8.90
2018-03-06T02:41:06.290Z,8.90
2018-03-06T02:42:09.585Z,8.90
2018-03-06T02:43:12.138Z,8.90
2018-03-06T02:44:15.423Z,8.90
2018-03-06T02:45:18.714Z,8.90
2018-03-06T02:46:21.255Z,8.90
2018-03-06T02:47:24.543Z,9.00
2018-03-06T02:48:27.854Z,9.00
2018-03-06T02:49:30.431Z,9.00
2018-03-06T02:50:32.955Z,9.00
2018-03-06T02:51:36.289Z,9.00
2018-03-06T02:52:38.838Z,9.00
2018-03-06T02:53:41.719Z,9.00
2018-03-06T02:54:44.235Z,9.00
2018-03-06T02:55:46.858Z,9.00
2018-03-06T02:56:49.400Z,9.10
2018-03-06T02:57:51.995Z,9.10
2018-03-06T02:58:54.854Z,9.10
2018-03-06T02:59:57.393Z,9.10
2018-03-06T03:01:00.683Z,9.10
2018-03-06T03:02:03.971Z,9.10
2018-03-06T03:03:07.247Z,9.10
2018-03-06T03:04:10.556Z,9.10
2018-03-06T03:05:13.094Z,9.10
2018-03-06T03:06:16.392Z,9.20
2018-03-06T03:07:18.921Z,9.10
2018-03-06T03:08:21.443Z,9.20
2018-03-06T03:09:23.982Z,9.20
2018-03-06T03:10:27.266Z,9.20
2018-03-06T03:11:30.555Z,9.20
2018-03-06T03:12:33.154Z,9.10
2018-03-06T03:13:35.717Z,9.10
2018-03-06T03:14:38.274Z,9.10
2018-03-06T03:15:40.795Z,9.10
2018-03-06T03:16:44.127Z,9.10
2018-03-06T03:17:46.650Z,9.10
2018-03-06T03:18:49.947Z,9.00
2018-03-06T03:19:53.248Z,9.10
2018-03-06T03:20:55.822Z,9.00
2018-03-06T03:21:58.399Z,9.00
2018-03-06T03:23:00.924Z,9.10
2018-03-06T03:24:04.203Z,9.10
2018-03-06T03:25:06.731Z,9.00
2018-03-06T03:26:09.250Z,9.00
2018-03-06T03:27:11.766Z,9.10
2018-03-06T03:28:14.279Z,9.10
2018-03-06T03:29:17.563Z,9.10
2018-03-06T03:30:20.104Z,9.10
2018-03-06T03:31:22.631Z,9.10
2018-03-06T03:32:25.155Z,9.10
2018-03-06T03:33:28.439Z,9.10
2018-03-06T03:34:31.730Z,9.10
2018-03-06T03:35:34.270Z,9.10
2018-03-06T03:36:36.792Z,9.10
2018-03-06T03:37:39.298Z,9.10
2018-03-06T03:38:41.823Z,9.10
2018-03-06T03:39:44.343Z,9.10
2018-03-06T03:40:47.674Z,9.10
2018-03-06T03:41:50.198Z,9.10
2018-03-06T03:42:53.492Z,9.10
2018-03-06T03:43:56.023Z,9.10
2018-03-06T03:44:58.548Z,9.10
2018-03-06T03:46:01.088Z,9.10
2018-03-06T03:47:03.612Z,9.10
2018-03-06T03:48:06.243Z,9.10
2018-03-06T03:49:08.811Z,9.10
2018-03-06T03:50:11.328Z,9.10
2018-03-06T03:51:13.866Z,9.10
2018-03-06T03:52:16.383Z,9.10
2018-03-06T03:53:19.671Z,9.10
2018-03-06T03:54:22.942Z,9.10
2018-03-06T03:55:26.233Z,9.10
2018-03-06T03:56:29.550Z,9.10
2018-03-06T03:57:32.089Z,9.10
2018-03-06T03:58:34.618Z,9.10
2018-03-06T03:59:37.135Z,9.10
2018-03-06T04:00:39.662Z,9.10
2018-03-06T04:01:43.002Z,9.10
2018-03-06T04:02:45.522Z,9.10
2018-03-06T04:03:48.815Z,9.10
2018-03-06T04:04:52.109Z,9.10
2018-03-06T04:05:54.638Z,9.10
2018-03-06T04:06:57.178Z,9.10
2018-03-06T04:07:59.711Z,9.10
2018-03-06T04:09:02.234Z,9.20
2018-03-06T04:10:04.775Z,9.20
2018-03-06T04:11:07.318Z,9.20
2018-03-06T04:12:09.862Z,9.20
2018-03-06T04:13:13.146Z,9.10
2018-03-06T04:14:15.671Z,9.10
2018-03-06T04:15:19.699Z,9.10
2018-03-06T04:16:22.982Z,9.10
2018-03-06T04:17:26.311Z,9.10
2018-03-06T04:18:28.822Z,9.10
2018-03-06T04:19:31.343Z,9.10
2018-03-06T04:20:33.866Z,9.10
2018-03-06T04:21:37.154Z,9.10
2018-03-06T04:22:40.482Z,9.10
2018-03-06T04:23:42.999Z,9.00
2018-03-06T04:24:46.282Z,9.00
2018-03-06T04:25:49.571Z,9.00
2018-03-06T04:26:52.854Z,9.00
2018-03-06T04:27:56.157Z,9.00
2018-03-06T04:28:58.684Z,9.00
2018-03-06T04:30:01.215Z,8.90
2018-03-06T04:31:03.827Z,8.90
2018-03-06T04:32:07.122Z,8.90
2018-03-06T04:33:10.423Z,8.90
2018-03-06T04:34:12.946Z,8.90
2018-03-06T04:35:15.480Z,8.90
2018-03-06T04:36:18.006Z,8.90
2018-03-06T04:37:20.534Z,8.90
2018-03-06T04:38:23.078Z,8.90
2018-03-06T04:39:25.600Z,9.00
2018-03-06T04:40:28.884Z,8.90
2018-03-06T04:41:32.172Z,9.00
2018-03-06T04:42:34.706Z,8.90
2018-03-06T04:43:37.257Z,8.90
2018-03-06T04:44:39.779Z,8.90
2018-03-06T04:45:42.296Z,8.90
2018-03-06T04:46:44.846Z,8.90
2018-03-06T04:47:47.366Z,8.90
2018-03-06T04:48:49.912Z,8.90
2018-03-06T04:49:53.202Z,8.90
2018-03-06T04:50:56.500Z,8.90
2018-03-06T04:51:59.034Z,8.90
2018-03-06T04:53:01.555Z,8.90
2018-03-06T04:54:04.098Z,8.90
2018-03-06T04:55:07.386Z,9.00
2018-03-06T04:56:09.925Z,9.00
2018-03-06T04:57:12.448Z,9.00
2018-03-06T04:58:14.990Z,9.00
2018-03-06T04:59:17.890Z,9.00
2018-03-06T05:00:20.435Z,9.00
2018-03-06T05:01:22.987Z,9.00
2018-03-06T05:02:25.532Z,9.00
2018-03-06T05:03:28.827Z,9.00
2018-03-06T05:04:32.135Z,9.00
2018-03-06T05:05:34.662Z,9.00
2018-03-06T05:06:37.185Z,9.00
2018-03-06T05:07:39.743Z,9.00
2018-03-06T05:08:42.263Z,9.00
2018-03-06T05:09:44.794Z,9.00
2018-03-06T05:10:47.317Z,9.00
2018-03-06T05:11:50.612Z,9.00
2018-03-06T05:12:53.135Z,9.00
2018-03-06T05:13:55.675Z,9.00
2018-03-06T05:14:58.230Z,9.00
2018-03-06T05:16:00.759Z,9.00
2018-03-06T05:17:04.057Z,9.00
2018-03-06T05:18:06.583Z,9.00
2018-03-06T05:19:09.109Z,9.00
2018-03-06T05:20:11.966Z,9.10
2018-03-06T05:21:14.490Z,9.10
2018-03-06T05:22:17.027Z,9.10
2018-03-06T05:23:19.558Z,9.00
2018-03-06T05:24:22.082Z,9.00
2018-03-06T05:25:24.639Z,9.00
2018-03-06T05:26:27.154Z,9.00
2018-03-06T05:27:29.679Z,9.00
2018-03-06T05:28:32.211Z,9.00
2018-03-06T05:29:34.744Z,9.00
2018-03-06T05:30:37.282Z,9.00
2018-03-06T05:31:39.901Z,9.00
2018-03-06T05:32:42.424Z,9.00
2018-03-06T05:33:45.711Z,9.00
2018-03-06T05:34:48.230Z,9.00
2018-03-06T05:35:50.787Z,9.00
2018-03-06T05:36:53.311Z,9.00
2018-03-06T05:37:56.594Z,9.00
2018-03-06T05:38:59.986Z,9.00
2018-03-06T05:40:02.454Z,9.00
2018-03-06T05:41:05.763Z,9.00
2018-03-06T05:42:08.290Z,9.00
2018-03-06T05:43:11.586Z,9.00
2018-03-06T05:44:14.110Z,9.00
2018-03-06T05:45:16.628Z,9.00
2018-03-06T05:46:19.185Z,9.00
2018-03-06T05:47:21.711Z,8.90
2018-03-06T05:48:24.244Z,8.90
2018-03-06T05:49:26.766Z,9.00
2018-03-06T05:50:30.062Z,9.00
2018-03-06T05:51:33.370Z,8.90
2018-03-06T05:52:35.908Z,8.90
2018-03-06T05:53:39.211Z,9.00
2018-03-06T05:54:41.735Z,9.00
2018-03-06T05:55:44.259Z,9.00
2018-03-06T05:56:46.811Z,9.00
2018-03-06T05:57:49.333Z,9.00
2018-03-06T05:58:51.866Z,9.00
2018-03-06T05:59:54.395Z,9.00
2018-03-06T06:00:56.946Z,9.00
2018-03-06T06:01:59.470Z,9.00
2018-03-06T06:03:02.003Z,9.00
2018-03-06T06:04:04.534Z,9.00
2018-03-06T06:05:07.837Z,9.00
2018-03-06T06:06:11.136Z,9.00
2018-03-06T06:07:13.714Z,9.00
2018-03-06T06:08:16.256Z,9.00
2018-03-06T06:09:19.543Z,9.00
2018-03-06T06:10:22.113Z,9.00
2018-03-06T06:11:24.860Z,9.00
2018-03-06T06:12:28.211Z,9.00
2018-03-06T06:13:30.788Z,9.00
2018-03-06T06:14:33.276Z,9.00
2018-03-06T06:15:35.783Z,9.10
2018-03-06T06:16:38.335Z,9.10
2018-03-06T06:17:40.873Z,9.10
2018-03-06T06:18:43.396Z,9.10
2018-03-06T06:19:45.921Z,9.10
2018-03-06T06:20:48.459Z,9.10
2018-03-06T06:21:50.958Z,9.10
2018-03-06T06:22:54.274Z,9.10
2018-03-06T06:23:56.784Z,9.10
2018-03-06T06:24:59.294Z,9.10
2018-03-06T06:26:01.847Z,9.10
2018-03-06T06:27:05.132Z,9.10
2018-03-06T06:28:08.650Z,9.10
2018-03-06T06:29:11.156Z,9.10
2018-03-06T06:30:13.662Z,9.10
2018-03-06T06:31:16.176Z,9.10
2018-03-06T06:32:18.683Z,9.10
2018-03-06T06:33:21.975Z,9.10
2018-03-06T06:34:24.571Z,9.10
2018-03-06T06:35:27.170Z,9.10
2018-03-06T06:36:29.757Z,9.10
2018-03-06T06:37:33.043Z,9.10
2018-03-06T06:38:36.370Z,9.00
2018-03-06T06:39:38.876Z,9.00
2018-03-06T06:40:41.471Z,9.10
2018-03-06T06:41:44.747Z,9.10
2018-03-06T06:42:48.060Z,9.10
2018-03-06T06:43:50.634Z,9.10
2018-03-06T06:44:54.012Z,9.10
2018-03-06T06:45:56.523Z,9.10
2018-03-06T06:46:59.938Z,9.10
2018-03-06T06:48:03.314Z,9.10
2018-03-06T06:49:06.616Z,9.10
2018-03-06T06:50:09.159Z,9.10
2018-03-06T06:51:11.697Z,9.10
2018-03-06T06:52:14.233Z,9.10
2018-03-06T06:53:16.738Z,9.10
2018-03-06T06:54:19.301Z,9.10
2018-03-06T06:55:21.839Z,9.10
2018-03-06T06:56:24.344Z,9.10
2018-03-06T06:57:28.368Z,9.10
2018-03-06T06:58:31.648Z,9.20
2018-03-06T06:59:34.944Z,9.20
2018-03-06T07:00:37.481Z,9.20
2018-03-06T07:01:40.091Z,9.20
2018-03-06T07:02:42.607Z,9.20
2018-03-06T07:03:45.128Z,9.20
2018-03-06T07:04:47.662Z,9.20
2018-03-06T07:05:50.934Z,9.20
2018-03-06T07:06:53.446Z,9.20
2018-03-06T07:07:55.955Z,9.20
2018-03-06T07:08:58.462Z,9.20
2018-03-06T07:10:01.330Z,9.20
2018-03-06T07:11:03.859Z,9.20
2018-03-06T07:12:06.475Z,9.20
2018-03-06T07:13:08.984Z,9.20
2018-03-06T07:14:12.278Z,9.20
2018-03-06T07:15:14.808Z,9.20
2018-03-06T07:16:17.311Z,9.20
2018-03-06T07:17:19.838Z,9.20
2018-03-06T07:18:22.344Z,9.20
2018-03-06T07:19:25.674Z,9.20
2018-03-06T07:20:28.203Z,9.20
2018-03-06T07:21:31.503Z,9.20
2018-03-06T07:22:34.770Z,9.20
2018-03-06T07:23:38.078Z,9.20
2018-03-06T07:24:40.601Z,9.20
2018-03-06T07:25:43.127Z,9.30
2018-03-06T07:26:45.643Z,9.30
2018-03-06T07:27:48.146Z,9.30
2018-03-06T07:28:50.663Z,9.30
2018-03-06T07:29:53.195Z,9.30
2018-03-06T07:30:55.715Z,9.30
2018-03-06T07:31:58.998Z,9.30
2018-03-06T07:33:02.286Z,9.30
2018-03-06T07:34:05.563Z,9.30
2018-03-06T07:35:08.855Z,9.30
2018-03-06T07:36:12.165Z,9.30
2018-03-06T07:37:14.696Z,9.30
2018-03-06T07:38:17.970Z,9.40
2018-03-06T07:39:20.487Z,9.30
2018-03-06T07:40:22.998Z,9.40
2018-03-06T07:41:25.524Z,9.40
2018-03-06T07:42:28.035Z,9.40
2018-03-06T07:43:30.537Z,9.30
2018-03-06T07:44:33.043Z,9.30
2018-03-06T07:45:35.539Z,9.40
2018-03-06T07:46:38.844Z,9.30
2018-03-06T07:47:41.363Z,9.30
2018-03-06T07:48:43.882Z,9.40
2018-03-06T07:49:46.392Z,9.30
2018-03-06T07:50:48.892Z,9.40
2018-03-06T07:51:52.192Z,9.40
2018-03-06T07:52:55.104Z,9.30
2018-03-06T07:53:57.610Z,9.40
2018-03-06T07:55:00.884Z,9.40
2018-03-06T07:56:03.446Z,9.40
2018-03-06T07:57:05.976Z,9.40
2018-03-06T07:58:08.499Z,9.40
2018-03-06T07:59:11.762Z,9.40
2018-03-06T08:00:14.296Z,9.40
2018-03-06T08:01:16.852Z,9.50
2018-03-06T08:02:19.398Z,9.50
2018-03-06T08:03:21.918Z,9.60
2018-03-06T08:04:24.507Z,9.60
2018-03-06T08:05:27.775Z,9.60
2018-03-06T08:06:30.363Z,9.60
2018-03-06T08:07:32.894Z,9.60
2018-03-06T08:08:35.416Z,9.60
2018-03-06T08:09:37.927Z,9.60
2018-03-06T08:10:40.491Z,9.60
2018-03-06T08:11:42.992Z,9.60
2018-03-06T08:12:45.543Z,9.60
2018-03-06T08:13:48.819Z,9.60
2018-03-06T08:14:51.332Z,9.60
2018-03-06T08:15:53.852Z,9.60
2018-03-06T08:16:56.358Z,9.60
2018-03-06T08:17:58.892Z,9.60
2018-03-06T08:19:02.212Z,9.60
2018-03-06T08:20:04.730Z,9.60
2018-03-06T08:21:07.265Z,9.60
2018-03-06T08:22:09.815Z,9.70
2018-03-06T08:23:12.347Z,9.60
2018-03-06T08:24:16.382Z,9.70
2018-03-06T08:25:18.917Z,9.60
2018-03-06T08:26:22.187Z,9.70
2018-03-06T08:27:25.479Z,9.60
2018-03-06T08:28:28.775Z,9.70
2018-03-06T08:29:31.280Z,9.70
2018-03-06T08:30:33.801Z,9.70
2018-03-06T08:31:37.076Z,9.70
2018-03-06T08:32:40.344Z,9.70
2018-03-06T08:33:42.951Z,9.70
2018-03-06T08:34:45.507Z,9.70
2018-03-06T08:35:48.875Z,9.70
2018-03-06T08:36:52.197Z,9.70
2018-03-06T08:37:54.722Z,9.60
2018-03-06T08:38:58.014Z,9.60
2018-03-06T08:40:01.310Z,9.70
2018-03-06T08:41:03.815Z,9.60
2018-03-06T08:42:06.320Z,9.60
2018-03-06T08:43:09.602Z,9.60
2018-03-06T08:44:12.945Z,9.60
2018-03-06T08:45:15.481Z,9.60
2018-03-06T08:46:20.100Z,9.60
2018-03-06T08:47:22.608Z,9.60
2018-03-06T08:48:25.109Z,9.60
2018-03-06T08:49:28.387Z,9.60
2018-03-06T08:50:31.676Z,9.60
2018-03-06T08:51:34.951Z,9.60
2018-03-06T08:52:38.222Z,9.70
2018-03-06T08:53:40.763Z,9.60
2018-03-06T08:54:43.282Z,9.60
2018-03-06T08:55:46.559Z,9.60
2018-03-06T08:56:49.836Z,9.60
2018-03-06T08:57:53.111Z,9.70
2018-03-06T08:58:56.869Z,9.70
2018-03-06T08:59:59.407Z,9.70
2018-03-06T09:01:01.919Z,9.70
2018-03-06T09:02:04.434Z,9.70
2018-03-06T09:03:06.950Z,9.80
2018-03-06T09:04:09.476Z,9.80
2018-03-06T09:05:12.037Z,9.80
2018-03-06T09:06:14.791Z,9.80
2018-03-06T09:07:17.314Z,9.90
2018-03-06T09:08:19.815Z,9.90
2018-03-06T09:09:23.087Z,10.00
2018-03-06T09:10:26.398Z,10.00
2018-03-06T09:11:28.915Z,10.00
2018-03-06T09:12:31.442Z,10.00
2018-03-06T09:13:33.970Z,10.10
2018-03-06T09:14:37.258Z,10.10
2018-03-06T09:15:40.632Z,10.10
2018-03-06T09:16:44.006Z,10.10
2018-03-06T09:17:46.539Z,10.10
2018-03-06T09:18:49.109Z,10.10
2018-03-06T09:19:51.624Z,10.10
2018-03-06T09:20:54.929Z,10.20
2018-03-06T09:21:57.484Z,10.20
2018-03-06T09:23:01.006Z,10.30
2018-03-06T09:24:03.530Z,10.20
2018-03-06T09:25:06.851Z,10.30
2018-03-06T09:26:09.403Z,10.30
2018-03-06T09:27:11.948Z,10.40
2018-03-06T09:28:15.278Z,10.40
2018-03-06T09:29:17.782Z,10.40
2018-03-06T09:30:21.047Z,10.50
2018-03-06T09:31:23.591Z,10.50
2018-03-06T09:32:26.136Z,10.50
2018-03-06T09:33:28.651Z,10.50
2018-03-06T09:34:31.161Z,10.50
2018-03-06T09:35:33.663Z,10.50
2018-03-06T09:36:36.926Z,10.50
2018-03-06T09:37:39.471Z,10.50
2018-03-06T09:38:42.048Z,10.60
2018-03-06T09:39:44.583Z,10.60
2018-03-06T09:40:47.905Z,10.60
2018-03-06T09:41:50.446Z,10.60
2018-03-06T09:42:53.718Z,10.60
2018-03-06T09:43:57.001Z,10.70
2018-03-06T09:45:00.290Z,10.70
2018-03-06T09:46:03.611Z,10.70
2018-03-06T09:47:06.299Z,10.70
2018-03-06T09:48:09.043Z,10.70
2018-03-06T09:49:12.307Z,10.70
2018-03-06T09:50:15.616Z,10.70
2018-03-06T09:51:18.130Z,10.70
2018-03-06T09:52:22.196Z,10.80
2018-03-06T09:53:24.713Z,10.70
2018-03-06T09:54:28.004Z,10.80
2018-03-06T09:55:31.279Z,10.80
2018-03-06T09:56:34.566Z,10.90
2018-03-06T09:57:37.859Z,10.90
2018-03-06T09:58:41.146Z,10.90
2018-03-06T09:59:43.687Z,10.90
2018-03-06T10:00:46.986Z,10.90
2018-03-06T10:01:49.516Z,10.90
2018-03-06T10:02:52.051Z,10.90
2018-03-06T10:03:54.569Z,10.90
2018-03-06T10:04:57.900Z,10.90
2018-03-06T10:06:00.434Z,10.90
2018-03-06T10:07:03.731Z,10.90
2018-03-06T10:08:06.305Z,10.90
2018-03-06T10:09:08.850Z,10.90
2018-03-06T10:10:12.127Z,10.90
2018-03-06T10:11:15.409Z,10.90
2018-03-06T10:12:18.720Z,10.90
2018-03-06T10:13:21.295Z,10.80
2018-03-06T10:14:23.815Z,10.80
2018-03-06T10:15:26.470Z,10.80
2018-03-06T10:16:29.768Z,10.80
2018-03-06T10:17:32.270Z,10.70
2018-03-06T10:18:34.805Z,10.80
2018-03-06T10:19:38.095Z,10.80
2018-03-06T10:20:41.367Z,10.80
2018-03-06T10:21:43.880Z,10.70
2018-03-06T10:22:47.460Z,10.80
2018-03-06T10:23:50.277Z,10.80
2018-03-06T10:24:52.799Z,10.80
2018-03-06T10:25:55.327Z,10.80
2018-03-06T10:26:57.839Z,10.80
2018-03-06T10:28:00.349Z,10.80
2018-03-06T10:29:02.882Z,10.80
2018-03-06T10:30:06.115Z,10.80
2018-03-06T10:31:09.400Z,10.80
2018-03-06T10:32:12.733Z,10.80
2018-03-06T10:33:15.266Z,10.80
2018-03-06T10:34:17.850Z,10.80
2018-03-06T10:35:20.379Z,10.90
2018-03-06T10:36:23.656Z,10.90
2018-03-06T10:37:26.210Z,10.90
2018-03-06T10:38:28.715Z,10.90
2018-03-06T10:39:31.257Z,10.90
2018-03-06T10:40:34.534Z,11.00
2018-03-06T10:41:37.047Z,11.00
2018-03-06T10:42:39.559Z,11.00
2018-03-06T10:43:42.067Z,11.00
2018-03-06T10:44:44.614Z,11.00
2018-03-06T10:45:47.893Z,11.10
2018-03-06T10:46:51.169Z,11.10
2018-03-06T10:47:54.464Z,11.10
2018-03-06T10:48:57.735Z,11.10
2018-03-06T10:50:01.051Z,11.20
2018-03-06T10:51:03.563Z,11.10
2018-03-06T10:52:06.076Z,11.20
2018-03-06T10:53:08.587Z,11.20
2018-03-06T10:54:11.152Z,11.20
2018-03-06T10:55:13.733Z,11.30
2018-03-06T10:56:16.278Z,11.30
2018-03-06T10:57:18.822Z,11.30
2018-03-06T10:58:21.538Z,11.30
2018-03-06T10:59:24.053Z,11.30
2018-03-06T11:00:32.218Z,11.30
2018-03-06T11:01:36.373Z,11.40
2018-03-06T11:02:43.711Z,11.40
2018-03-06T11:03:46.995Z,11.40
2018-03-06T11:04:50.312Z,11.40
2018-03-06T11:05:53.753Z,11.40
2018-03-06T11:06:58.038Z,11.50
2018-03-06T11:08:00.547Z,11.50
2018-03-06T11:09:03.424Z,11.50
2018-03-06T11:10:07.699Z,11.50
2018-03-06T11:11:10.990Z,11.60
2018-03-06T11:12:14.260Z,11.60
2018-03-06T11:13:17.543Z,11.60
2018-03-06T11:14:21.975Z,11.60
2018-03-06T11:15:25.296Z,11.60
2018-03-06T11:16:27.939Z,11.60
2018-03-06T11:17:31.436Z,11.70
2018-03-06T11:18:33.977Z,11.70
2018-03-06T11:19:37.999Z,11.70
2018-03-06T11:20:40.997Z,11.70
2018-03-06T11:21:43.602Z,11.70
2018-03-06T11:22:47.070Z,11.80
2018-03-06T11:23:49.587Z,11.80
2018-03-06T11:24:52.913Z,11.90
2018-03-06T11:25:55.435Z,11.90
2018-03-06T11:26:58.739Z,12.00
2018-03-06T11:28:01.246Z,12.00
2018-03-06T11:29:05.348Z,12.00
2018-03-06T11:30:08.515Z,12.00
2018-03-06T11:31:11.059Z,12.10
2018-03-06T11:32:13.587Z,12.10
2018-03-06T11:33:17.746Z,12.20
2018-03-06T11:34:20.294Z,12.20
2018-03-06T11:35:24.055Z,12.30
2018-03-06T11:36:26.731Z,12.30
2018-03-06T11:37:29.338Z,12.30
2018-03-06T11:38:31.843Z,12.40
2018-03-06T11:39:34.517Z,12.40
2018-03-06T11:40:37.038Z,12.40
2018-03-06T11:41:39.561Z,12.50
2018-03-06T11:42:46.379Z,12.50
2018-03-06T11:43:49.753Z,12.50
2018-03-06T11:44:52.284Z,12.60
2018-03-06T11:45:55.278Z,12.60
2018-03-06T11:46:57.791Z,12.60
2018-03-06T11:48:00.358Z,12.60
2018-03-06T11:49:02.873Z,12.70
2018-03-06T11:50:05.387Z,12.70
2018-03-06T11:51:07.916Z,12.70
2018-03-06T11:52:10.474Z,12.70
2018-03-06T11:53:13.004Z,12.80
2018-03-06T11:54:18.062Z,12.80
2018-03-06T11:55:20.589Z,12.80
2018-03-06T11:56:23.134Z,12.80
2018-03-06T11:57:25.662Z,12.80
2018-03-06T11:58:28.221Z,12.80
2018-03-06T11:59:31.065Z,12.80
2018-03-06T12:00:34.358Z,12.80
2018-03-06T12:01:37.672Z,12.80
2018-03-06T12:02:40.207Z,12.80
2018-03-06T12:03:43.523Z,12.80
2018-03-06T12:04:46.023Z,12.80
2018-03-06T12:05:48.534Z,12.80
2018-03-06T12:06:51.055Z,12.80
2018-03-06T12:07:53.594Z,12.80
2018-03-06T12:08:58.296Z,12.80
2018-03-06T12:10:00.808Z,12.80
2018-03-06T12:11:03.318Z,12.80
2018-03-06T12:12:05.835Z,12.80
2018-03-06T12:13:08.359Z,12.80
2018-03-06T12:14:11.230Z,12.80
2018-03-06T12:15:13.768Z,12.80
2018-03-06T12:16:17.097Z,12.90
2018-03-06T12:17:19.595Z,12.80
2018-03-06T12:18:22.109Z,12.90
2018-03-06T12:19:24.663Z,12.90
2018-03-06T12:20:27.958Z,12.90
2018-03-06T12:21:30.585Z,12.90
2018-03-06T12:22:33.110Z,12.90
2018-03-06T12:23:35.610Z,12.90
2018-03-06T12:24:39.274Z,12.90
2018-03-06T12:25:41.774Z,13.00
2018-03-06T12:26:44.289Z,13.00
2018-03-06T12:27:46.801Z,13.00
2018-03-06T12:28:49.320Z,13.00
2018-03-06T12:29:51.854Z,13.10
2018-03-06T12:30:55.136Z,13.10
2018-03-06T12:31:58.456Z,13.10
2018-03-06T12:33:04.216Z,13.10
2018-03-06T12:34:06.726Z,13.10
2018-03-06T12:35:10.026Z,13.10
2018-03-06T12:36:16.288Z,13.10
2018-03-06T12:37:19.811Z,13.10
2018-03-06T12:38:22.342Z,13.20
2018-03-06T12:39:24.919Z,13.20
2018-03-06T12:40:27.449Z,13.20
2018-03-06T12:41:30.758Z,13.20
2018-03-06T12:42:33.280Z,13.20
2018-03-06T12:43:35.807Z,13.20
2018-03-06T12:44:38.318Z,13.20
2018-03-06T12:45:40.899Z,13.30
2018-03-06T12:46:44.205Z,13.30
2018-03-06T12:47:46.758Z,13.30
2018-03-06T12:48:50.061Z,13.30
2018-03-06T12:49:53.352Z,13.30
2018-03-06T12:50:55.879Z,13.30
2018-03-06T12:51:59.162Z,13.30
2018-03-06T12:53:01.683Z,13.30
2018-03-06T12:54:04.194Z,13.30
2018-03-06T12:55:07.473Z,13.30
2018-03-06T12:56:10.859Z,13.40
2018-03-06T12:57:14.139Z,13.30
2018-03-06T12:58:16.651Z,13.30
2018-03-06T12:59:19.171Z,13.30
2018-03-06T13:00:21.680Z,13.30
2018-03-06T13:01:24.535Z,13.30
2018-03-06T13:02:27.051Z,13.40
2018-03-06T13:03:29.562Z,13.40
2018-03-06T13:04:32.826Z,13.40
2018-03-06T13:05:35.326Z,13.40
2018-03-06T13:06:37.865Z,13.40
2018-03-06T13:07:42.639Z,13.50
2018-03-06T13:08:45.972Z,13.50
2018-03-06T13:09:49.244Z,13.50
2018-03-06T13:10:51.768Z,13.50
2018-03-06T13:11:54.294Z,13.50
2018-03-06T13:12:57.627Z,13.50
2018-03-06T13:14:00.143Z,13.50
2018-03-06T13:15:03.469Z,13.60
2018-03-06T13:16:05.983Z,13.50
2018-03-06T13:17:09.279Z,13.60
2018-03-06T13:18:11.783Z,13.60
2018-03-06T13:19:14.302Z,13.60
2018-03-06T13:20:18.299Z,13.60
2018-03-06T13:21:21.589Z,13.60
2018-03-06T13:22:24.893Z,13.60
2018-03-06T13:23:27.410Z,13.60
2018-03-06T13:24:29.971Z,13.60
2018-03-06T13:25:32.507Z,13.60
2018-03-06T13:26:35.067Z,13.70
2018-03-06T13:27:37.619Z,13.70
2018-03-06T13:28:48.975Z,13.70
2018-03-06T13:29:52.258Z,13.70
2018-03-06T13:30:55.583Z,13.70
2018-03-06T13:31:58.130Z,13.70
2018-03-06T13:33:00.663Z,13.70
2018-03-06T13:34:03.980Z,13.80
2018-03-06T13:35:06.493Z,13.70
2018-03-06T13:36:09.021Z,13.80
2018-03-06T13:37:11.596Z,13.80
2018-03-06T13:38:14.177Z,13.80
2018-03-06T13:39:16.685Z,13.80
2018-03-06T13:40:19.961Z,13.80
2018-03-06T13:41:23.247Z,13.90
2018-03-06T13:42:26.527Z,13.90
2018-03-06T13:43:29.856Z,14.00
2018-03-06T13:44:32.373Z,13.90
2018-03-06T13:45:34.916Z,14.00
2018-03-06T13:46:38.081Z,14.00
2018-03-06T13:47:40.593Z,14.00